Tordesillas, Spain
Current Conditions -  °F | °C
As of 7:00 PM on Thursday 29 Jan 2015 (Local Time) from LEVD Reporting Station
Moderate Rain Moderate Rain  
Wind Chill: 37°   Ceiling: 600
Heat Index: 46°   Visibility: 6mi
Dew Point: 46°   Wind: 29mph
Humidity: 100%   Direction: 260°W
Pressure: 29.77"   Gusts: 40mph
Location:  41.5°N, 5°W
Report Text: LEVD 291800Z 26025G35KT 9999 RA OVC006 08/08 Q1008
Loading
Personal Weather Stations






























Interactive Weather Map New forecast layout! Learn more

10-Day Weather Forecast

Advertisements
Track Severe Weather on mobile